Time;durP1;ratioP1;P1;durP2;ratioP2;P2;SDS_P1;SDS_P2;PMS_P1;PMS_P2;Temp;Humidity;BMP_temperature;BMP_pressure;BME280_temperature;BME280_humidity;BME280_pressure;Samples;Min_cycle;Max_cycle;Signal;HPM_P1;HPM_P2
2022/07/27 00:01:14;;;;;;;;;2.33;2.33;;;;;19.07;59.34;101301.50;5040325;28;45400;-62
2022/07/27 00:03:39;;;;;;;;;4.67;3.00;;;;;19.02;59.48;101292.94;5036233;28;45335;-63
2022/07/27 00:06:06;;;;;;;;;6.00;4.00;;;;;19.01;59.56;101289.38;5036473;28;45429;-63
2022/07/27 00:08:31;;;;;;;;;4.00;4.00;;;;;19.05;59.52;101292.69;5035860;28;47152;-62
2022/07/27 00:10:57;;;;;;;;;6.00;2.00;;;;;19.09;59.66;101296.84;5037177;28;45283;-62
2022/07/27 00:13:22;;;;;;;;;3.33;3.33;;;;;19.08;59.36;101295.13;5035922;28;45207;-61
2022/07/27 00:15:48;;;;;;;;;5.00;5.00;;;;;19.17;58.95;101296.22;5054143;28;45268;-62
2022/07/27 00:18:14;;;;;;;;;6.67;5.67;;;;;19.10;59.39;101285.94;5055928;28;45899;-62
2022/07/27 00:20:40;;;;;;;;;4.00;4.00;;;;;19.18;59.01;101288.00;5044900;28;45427;-64
2022/07/27 00:23:06;;;;;;;;;5.67;4.00;;;;;19.17;59.10;101275.50;5036050;28;45339;-63
2022/07/27 00:25:32;;;;;;;;;3.00;3.00;;;;;19.25;59.31;101291.06;5036431;28;45599;-64
2022/07/27 00:27:57;;;;;;;;;6.33;6.00;;;;;19.18;59.51;101288.00;5036249;28;46318;-62
2022/07/27 00:30:23;;;;;;;;;7.00;5.00;;;;;19.18;60.09;101290.72;5036325;28;45318;-63
2022/07/27 00:32:49;;;;;;;;;3.33;3.33;;;;;19.11;60.34;101287.63;5036702;28;45425;-64
2022/07/27 00:35:15;;;;;;;;;3.00;3.00;;;;;19.03;60.68;101278.47;5040282;28;45339;-67
2022/07/27 00:37:40;;;;;;;;;5.00;4.00;;;;;18.92;60.62;101281.16;5056309;28;46331;-62
2022/07/27 00:40:07;;;;;;;;;2.67;2.00;;;;;19.01;60.17;101291.19;5054971;28;45398;-63
2022/07/27 00:42:32;;;;;;;;;5.33;4.00;;;;;18.85;61.09;101276.25;5055698;28;45165;-63
2022/07/27 00:44:58;;;;;;;;;4.00;4.00;;;;;18.84;60.80;101274.53;5056527;28;45403;-62
2022/07/27 00:47:24;;;;;;;;;3.00;3.00;;;;;18.86;61.30;101277.09;5048144;28;46307;-61
2022/07/27 00:49:50;;;;;;;;;8.00;6.00;;;;;18.93;60.69;101278.34;5055794;28;45410;-62
2022/07/27 00:52:16;;;;;;;;;3.00;3.00;;;;;18.97;60.72;101285.19;5056260;28;45338;-63
2022/07/27 00:54:43;;;;;;;;;6.00;3.00;;;;;18.93;60.58;101280.19;5056185;28;45564;-63
2022/07/27 00:57:10;;;;;;;;;6.67;4.00;;;;;18.91;61.26;101284.84;5053793;28;46835;-64
2022/07/27 00:59:36;;;;;;;;;3.33;3.33;;;;;18.89;61.41;101281.44;5049616;28;45357;-64
2022/07/27 01:02:03;;;;;;;;;5.00;4.00;;;;;18.85;61.56;101276.25;5036410;28;45297;-63
2022/07/27 01:04:29;;;;;;;;;7.00;3.00;;;;;18.84;61.47;101284.47;5035425;28;45398;-64
2022/07/27 01:06:55;;;;;;;;;4.67;3.00;;;;;18.83;61.16;101280.06;5034320;28;47988;-64
2022/07/27 01:12:07;;;;;;;;;8.33;5.67;;;;;18.73;61.60;101270.97;5035488;28;45485;-63
2022/07/27 01:14:33;;;;;;;;;3.33;3.33;;;;;18.70;61.53;101255.06;5036000;28;45497;-63
2022/07/27 01:16:59;;;;;;;;;4.00;4.00;;;;;18.81;61.44;101280.19;5035262;28;45482;-64
2022/07/27 01:19:25;;;;;;;;;4.00;4.00;;;;;18.77;61.71;101267.09;5035415;28;45304;-62
2022/07/27 01:21:50;;;;;;;;;3.33;3.33;;;;;18.83;61.62;101266.59;5035524;28;45376;-63
2022/07/27 01:24:15;;;;;;;;;5.00;5.00;;;;;18.83;60.87;101270.13;5036858;28;45370;-62
2022/07/27 01:26:41;;;;;;;;;2.00;2.00;;;;;18.78;61.53;101253.50;5038784;28;45823;-64
2022/07/27 01:29:07;;;;;;;;;5.00;5.00;;;;;18.82;61.22;101259.47;5039880;28;45534;-62
2022/07/27 01:31:32;;;;;;;;;4.33;3.33;;;;;18.83;61.68;101267.44;5059287;28;45197;-62
2022/07/27 01:33:58;;;;;;;;;7.67;4.00;;;;;18.72;62.42;101262.03;5058922;28;45259;-63
2022/07/27 01:36:24;;;;;;;;;3.00;3.00;;;;;18.68;61.91;101257.88;5058435;28;45439;-62
2022/07/27 01:38:49;;;;;;;;;3.33;3.00;;;;;18.71;61.62;101254.94;5058610;28;45397;-62
2022/07/27 01:41:15;;;;;;;;;5.33;5.33;;;;;18.70;61.94;101249.69;5037294;28;45499;-62
2022/07/27 01:43:40;;;;;;;;;3.33;3.33;;;;;18.71;62.06;101256.78;5038684;28;45590;-62
2022/07/27 01:46:06;;;;;;;;;5.00;3.33;;;;;18.70;61.58;101250.53;5038615;28;46048;-63
2022/07/27 01:48:31;;;;;;;;;4.33;4.33;;;;;18.69;61.70;101253.34;5072131;27;45403;-64
2022/07/27 01:50:57;;;;;;;;;6.00;4.00;;;;;18.75;61.70;101253.75;5040357;28;46114;-65
2022/07/27 01:53:23;;;;;;;;;8.67;6.00;;;;;18.76;61.27;101254.59;5045517;28;45465;-65
2022/07/27 01:55:50;;;;;;;;;5.67;5.67;;;;;18.71;62.05;101257.63;5058471;28;45446;-62
2022/07/27 01:58:16;;;;;;;;;6.00;6.00;;;;;18.70;61.95;101260.47;5058433;28;45430;-63
2022/07/27 02:00:42;;;;;;;;;5.67;4.33;;;;;18.66;62.18;101251.78;5045104;28;45319;-63
2022/07/27 02:03:08;;;;;;;;;2.00;2.00;;;;;18.62;62.16;101252.97;5070931;27;45373;-63
2022/07/27 02:05:35;;;;;;;;;2.67;2.67;;;;;18.55;62.58;101238.25;5038435;28;46356;-61
2022/07/27 02:08:00;;;;;;;;;8.00;3.67;;;;;18.49;62.54;101245.00;5037698;28;45442;-62
2022/07/27 02:10:26;;;;;;;;;5.00;4.00;;;;;18.49;62.80;101246.81;5048614;28;45485;-63
2022/07/27 02:12:52;;;;;;;;;3.00;3.00;;;;;18.32;63.00;101225.75;5057291;28;45315;-64
2022/07/27 02:15:21;;;;;;;;;3.00;3.00;;;;;18.31;63.14;101253.66;5058136;28;45457;-63
2022/07/27 02:17:48;;;;;;;;;4.00;3.00;;;;;18.24;63.54;101248.75;5055881;28;45657;-62
2022/07/27 02:20:15;;;;;;;;;3.00;3.00;;;;;18.12;64.12;101244.31;5058265;28;45981;-63
2022/07/27 02:22:41;;;;;;;;;3.33;3.00;;;;;18.06;64.46;101243.91;5058011;28;45591;-64
2022/07/27 02:25:08;;;;;;;;;4.33;3.00;;;;;18.06;64.60;101260.94;5058102;27;46079;-64
2022/07/27 02:27:33;;;;;;;;;5.00;3.33;;;;;18.05;64.35;101256.53;5057693;28;45433;-64
2022/07/27 02:29:59;;;;;;;;;4.00;4.00;;;;;18.03;64.45;101253.09;5058090;28;45325;-63
2022/07/27 02:32:24;;;;;;;;;3.00;3.00;;;;;17.97;64.61;101256.28;5056595;28;45466;-63
2022/07/27 02:34:50;;;;;;;;;5.00;3.00;;;;;17.91;64.56;101249.50;5054407;28;46190;-63
2022/07/27 02:37:16;;;;;;;;;5.00;4.00;;;;;18.00;64.18;101255.16;5056035;28;45228;-63
2022/07/27 02:39:41;;;;;;;;;3.00;3.00;;;;;18.03;63.59;101261.16;5058123;28;45441;-63
2022/07/27 02:42:07;;;;;;;;;3.00;3.00;;;;;17.96;63.62;101255.38;5058406;28;45608;-63
2022/07/27 02:44:33;;;;;;;;;6.67;3.00;;;;;17.83;63.35;101232.22;5057602;28;45193;-63
2022/07/27 02:46:58;;;;;;;;;5.67;4.33;;;;;18.02;63.59;101263.97;5056422;28;45248;-64
2022/07/27 02:49:24;;;;;;;;;2.67;2.67;;;;;18.02;63.37;101259.44;5057857;28;45264;-64
2022/07/27 02:51:53;;;;;;;;;6.33;5.33;;;;;17.95;63.63;101256.34;5057749;28;45264;-63
2022/07/27 02:54:20;;;;;;;;;6.00;5.00;;;;;17.90;63.47;101255.00;5055987;28;45436;-63
2022/07/27 02:56:47;;;;;;;;;4.00;4.00;;;;;17.87;63.84;101255.25;5042117;28;45427;-63
2022/07/27 02:59:13;;;;;;;;;4.00;4.00;;;;;17.88;63.48;101259.66;5035942;28;45470;-61
2022/07/27 03:01:38;;;;;;;;;4.67;3.33;;;;;17.91;63.38;101260.28;5037841;28;45566;-63
2022/07/27 03:04:03;;;;;;;;;8.67;5.00;;;;;17.92;63.60;101258.44;5036872;28;45279;-62
2022/07/27 03:06:29;;;;;;;;;4.67;3.00;;;;;17.91;63.76;101252.19;5037021;28;45689;-61
2022/07/27 03:08:54;;;;;;;;;6.00;4.33;;;;;17.82;64.06;101249.34;5037592;28;45396;-65
2022/07/27 03:11:20;;;;;;;;;6.00;4.00;;;;;17.77;64.17;101254.22;5037553;27;45355;-65
2022/07/27 03:13:45;;;;;;;;;3.33;3.33;;;;;17.68;64.50;101253.03;5037153;28;45371;-64
2022/07/27 03:16:11;;;;;;;;;3.33;3.33;;;;;17.53;64.61;101232.69;5045886;28;45464;-63
2022/07/27 03:18:37;;;;;;;;;5.00;5.00;;;;;17.57;64.80;101242.22;5056544;28;45429;-64
2022/07/27 03:21:02;;;;;;;;;4.00;4.00;;;;;17.53;64.77;101238.06;5057199;28;45445;-64
2022/07/27 03:23:28;;;;;;;;;4.33;4.33;;;;;17.57;64.59;101244.91;5055529;28;46990;-64
2022/07/27 03:25:53;;;;;;;;;6.33;5.33;;;;;17.56;64.23;101244.06;5051803;28;45577;-63
2022/07/27 03:28:18;;;;;;;;;6.67;4.00;;;;;17.58;64.39;101252.03;5037460;28;45342;-62
2022/07/27 03:30:44;;;;;;;;;4.33;4.00;;;;;17.53;64.19;101249.69;5037121;28;45335;-64
2022/07/27 03:33:10;;;;;;;;;4.00;4.00;;;;;17.47;64.11;101241.22;5036797;28;45391;-62
2022/07/27 03:35:36;;;;;;;;;4.00;2.33;;;;;17.52;64.37;101253.34;5038617;28;45532;-62
2022/07/27 03:38:01;;;;;;;;;5.00;3.33;;;;;17.50;64.40;101251.75;5055530;28;45541;-63
2022/07/27 03:40:31;;;;;;;;;6.00;4.00;;;;;17.49;64.13;101256.25;5057263;28;45570;-63
2022/07/27 03:42:57;;;;;;;;;6.33;4.00;;;;;17.53;63.76;101249.69;5072481;27;46373;-63
2022/07/27 03:45:23;;;;;;;;;8.00;5.00;;;;;17.53;63.61;101249.69;5054767;28;45709;-64
2022/07/27 03:47:48;;;;;;;;;4.00;4.00;;;;;17.48;63.23;101246.47;5036266;28;45458;-63
2022/07/27 03:50:13;;;;;;;;;6.00;4.00;;;;;17.45;63.54;101248.50;5036906;28;45347;-63
2022/07/27 03:52:39;;;;;;;;;3.00;3.00;;;;;17.42;63.41;101246.91;5037270;28;45350;-63
2022/07/27 03:55:06;;;;;;;;;1.67;0.67;;;;;17.46;63.14;101248.44;5055156;28;45250;-62
2022/07/27 03:57:31;;;;;;;;;7.00;3.00;;;;;17.46;63.38;101243.06;5018601;28;45316;-62
2022/07/27 03:59:57;;;;;;;;;5.33;3.33;;;;;17.46;63.36;101244.88;5035477;28;45375;-63
2022/07/27 04:02:22;;;;;;;;;4.00;4.00;;;;;17.40;63.44;101248.88;5036581;28;45608;-63
2022/07/27 04:04:47;;;;;;;;;6.67;3.67;;;;;17.39;63.33;101252.53;5036280;28;45545;-63
2022/07/27 04:07:13;;;;;;;;;4.00;4.00;;;;;17.37;63.30;101241.91;5052316;28;45227;-66
2022/07/27 04:09:38;;;;;;;;;3.67;3.00;;;;;17.33;63.36;101244.94;5056822;28;45302;-67
2022/07/27 04:12:04;;;;;;;;;5.33;4.33;;;;;17.29;63.64;101252.34;5056310;28;46986;-65
2022/07/27 04:14:29;;;;;;;;;3.00;3.00;;;;;17.30;63.36;101250.50;5055122;28;45356;-63
2022/07/27 04:16:55;;;;;;;;;9.00;6.00;;;;;17.24;63.64;101241.09;5055659;28;45378;-64
2022/07/27 04:19:20;;;;;;;;;3.00;3.00;;;;;17.29;63.38;101244.28;5056162;28;45354;-64
2022/07/27 04:21:46;;;;;;;;;10.00;5.00;;;;;17.31;63.48;101246.84;5054786;28;45405;-64
2022/07/27 04:24:11;;;;;;;;;5.00;5.00;;;;;17.18;63.55;101241.53;5056262;28;45439;-64
2022/07/27 04:26:36;;;;;;;;;6.00;3.00;;;;;17.07;63.38;101234.28;5055510;28;45591;-62
2022/07/27 04:29:02;;;;;;;;;4.67;4.33;;;;;17.07;63.79;101244.16;5041106;28;45299;-63
2022/07/27 04:31:28;;;;;;;;;4.33;3.00;;;;;17.00;63.88;101251.78;5035728;28;46170;-64
2022/07/27 04:33:53;;;;;;;;;4.67;3.00;;;;;17.01;63.92;101244.59;5035976;28;45480;-63
2022/07/27 04:36:18;;;;;;;;;5.00;3.33;;;;;17.07;63.61;101255.78;5035590;28;45337;-63
2022/07/27 04:38:44;;;;;;;;;6.00;4.00;;;;;16.97;63.32;101252.03;5036546;28;45518;-65
2022/07/27 04:41:09;;;;;;;;;4.33;4.00;;;;;16.99;63.41;101251.91;5035953;28;45551;-63
2022/07/27 04:43:35;;;;;;;;;3.67;3.67;;;;;16.97;63.41;101259.22;5035881;28;45442;-64
2022/07/27 04:46:04;;;;;;;;;4.00;3.33;;;;;16.87;63.35;101250.97;5071369;27;45418;-64
2022/07/27 04:48:31;;;;;;;;;5.00;4.00;;;;;16.92;63.41;101250.63;5055755;28;45223;-64
2022/07/27 04:50:57;;;;;;;;;6.00;4.67;;;;;16.89;63.01;101249.03;5055715;28;46003;-61
2022/07/27 04:53:22;;;;;;;;;13.00;6.00;;;;;16.91;63.30;101255.13;5055466;28;45410;-63
2022/07/27 04:55:47;;;;;;;;;5.00;5.00;;;;;16.84;63.36;101243.13;5054854;28;45434;-64
2022/07/27 04:58:14;;;;;;;;;6.00;3.33;;;;;16.90;63.00;101252.56;5056521;28;45492;-64
2022/07/27 05:00:39;;;;;;;;;8.33;4.33;;;;;16.86;63.34;101240.34;5059290;28;47284;-65
2022/07/27 05:03:05;;;;;;;;;7.67;4.00;;;;;16.89;63.18;101246.34;5059195;28;45338;-65
2022/07/27 05:05:31;;;;;;;;;4.00;4.00;;;;;16.84;63.06;101243.13;5059530;28;45398;-65
2022/07/27 05:07:56;;;;;;;;;3.00;3.00;;;;;16.89;63.02;101251.72;5039743;28;45719;-64
2022/07/27 05:10:22;;;;;;;;;4.33;4.00;;;;;16.90;62.85;101248.06;5038963;28;45686;-63
2022/07/27 05:12:48;;;;;;;;;2.67;2.67;;;;;16.88;62.90;101254.50;5038822;28;45275;-62
2022/07/27 05:15:15;;;;;;;;;4.33;3.67;;;;;16.84;62.50;101256.56;5039410;28;45325;-64
2022/07/27 05:17:40;;;;;;;;;4.33;4.33;;;;;16.88;62.31;101250.00;5038858;28;46112;-63
2022/07/27 05:20:06;;;;;;;;;4.67;3.00;;;;;16.90;62.10;101256.09;5038844;28;45684;-64
2022/07/27 05:22:31;;;;;;;;;3.67;3.33;;;;;16.87;62.60;101261.72;5038839;28;45343;-64
2022/07/27 05:24:57;;;;;;;;;3.33;3.33;;;;;16.87;62.26;101258.16;5038752;28;45344;-63
2022/07/27 05:27:22;;;;;;;;;3.00;3.00;;;;;16.78;62.25;101254.28;5039465;27;45679;-63
2022/07/27 05:29:48;;;;;;;;;4.67;3.00;;;;;16.85;62.71;101271.72;5071422;28;45373;-63
2022/07/27 05:32:14;;;;;;;;;6.00;3.67;;;;;16.87;62.53;101267.09;5038817;28;45557;-62
2022/07/27 05:34:40;;;;;;;;;3.00;3.00;;;;;16.95;62.19;101271.91;5038635;28;45333;-63
2022/07/27 05:37:06;;;;;;;;;12.00;10.33;;;;;17.00;61.90;101275.13;5038825;28;45170;-64
2022/07/27 05:39:32;;;;;;;;;3.00;3.00;;;;;17.04;62.05;101268.53;5038162;28;45335;-64
2022/07/27 05:41:57;;;;;;;;;5.67;4.00;;;;;17.04;61.50;101268.53;5054119;28;45416;-64
2022/07/27 05:44:23;;;;;;;;;3.33;3.00;;;;;17.11;61.68;101277.91;5037325;28;45295;-63
2022/07/27 05:46:48;;;;;;;;;5.33;4.00;;;;;17.08;61.26;101268.22;5079071;27;45647;-64
2022/07/27 05:49:13;;;;;;;;;4.33;3.00;;;;;17.11;61.36;101275.22;5058550;28;45295;-64
2022/07/27 05:51:39;;;;;;;;;6.33;6.00;;;;;17.12;61.39;101273.38;5057361;28;45829;-64
2022/07/27 05:54:04;;;;;;;;;9.00;9.00;;;;;17.15;61.03;101273.16;5058490;28;45281;-63
2022/07/27 05:56:30;;;;;;;;;7.00;6.00;;;;;17.14;60.82;101277.66;5053539;28;45729;-63
2022/07/27 05:58:55;;;;;;;;;4.00;4.00;;;;;17.14;60.73;101276.81;5038704;28;45704;-63
2022/07/27 06:01:22;;;;;;;;;5.67;4.33;;;;;17.14;61.16;101287.56;5036820;28;45915;-62
2022/07/27 06:03:47;;;;;;;;;4.00;4.00;;;;;17.13;60.79;101283.16;5039535;28;45323;-62
2022/07/27 06:08:57;;;;;;;;;3.33;3.33;;;;;17.12;61.08;101273.38;5048421;28;45416;-63
2022/07/27 06:11:22;;;;;;;;;8.00;4.00;;;;;17.18;61.17;101283.66;5057597;28;45456;-63
2022/07/27 06:13:49;;;;;;;;;6.33;5.00;;;;;17.22;60.99;101277.13;5057876;28;45351;-62
2022/07/27 06:16:15;;;;;;;;;9.00;5.00;;;;;17.27;60.56;101283.00;5069976;28;45332;-62
2022/07/27 06:18:40;;;;;;;;;5.33;4.00;;;;;17.28;60.31;101273.97;5037768;28;46202;-62
2022/07/27 06:21:06;;;;;;;;;16.67;10.67;;;;;17.36;60.29;101283.19;5038060;28;45268;-62
2022/07/27 06:23:32;;;;;;;;;4.00;4.00;;;;;17.41;60.29;101282.84;5038128;28;45304;-63
2022/07/27 06:25:58;;;;;;;;;4.00;4.00;;;;;17.44;59.96;101279.94;5050957;28;45363;-61
2022/07/27 06:28:23;;;;;;;;;6.00;4.00;;;;;17.48;59.86;101285.97;5037575;28;46275;-61
2022/07/27 06:30:49;;;;;;;;;7.00;6.00;;;;;17.47;59.54;101278.88;5038088;28;45332;-62
2022/07/27 06:33:14;;;;;;;;;2.67;2.67;;;;;17.56;59.63;101284.41;5037815;27;45330;-60
2022/07/27 06:35:41;;;;;;;;;6.33;5.00;;;;;17.62;59.95;101280.41;5048085;28;45565;-63
2022/07/27 06:38:07;;;;;;;;;7.00;3.67;;;;;17.69;59.45;101285.22;5037930;28;46526;-61
2022/07/27 06:40:33;;;;;;;;;3.00;3.00;;;;;17.77;59.42;101286.50;5037326;28;45461;-60
2022/07/27 06:42:59;;;;;;;;;5.00;5.00;;;;;17.81;59.30;101287.97;5037267;28;45359;-60
2022/07/27 06:45:25;;;;;;;;;6.00;4.00;;;;;17.81;58.89;101282.59;5037744;28;45575;-60
2022/07/27 06:47:50;;;;;;;;;3.33;3.33;;;;;17.88;58.97;101291.94;5069843;28;48100;-60
2022/07/27 06:50:17;;;;;;;;;5.00;5.00;;;;;17.94;58.87;101288.78;5037163;28;45232;-61
2022/07/27 06:52:42;;;;;;;;;7.00;5.33;;;;;18.00;58.55;101292.84;5038272;28;45280;-60
2022/07/27 06:55:08;;;;;;;;;7.00;7.00;;;;;18.09;58.88;101294.81;5048291;28;45462;-60
2022/07/27 06:57:34;;;;;;;;;3.33;3.33;;;;;18.13;58.31;101294.50;5037158;28;46201;-61
2022/07/27 06:59:59;;;;;;;;;7.00;4.00;;;;;18.14;58.25;101280.03;5037587;28;45362;-60
2022/07/27 07:02:25;;;;;;;;;7.33;5.00;;;;;18.22;58.02;101293.75;5037390;28;45190;-65
2022/07/27 07:04:50;;;;;;;;;8.00;6.33;;;;;18.26;58.50;101287.19;5042209;28;45590;-63
2022/07/27 07:07:16;;;;;;;;;4.00;4.00;;;;;18.37;58.06;101297.13;5047142;28;45438;-62
2022/07/27 07:09:41;;;;;;;;;8.00;7.00;;;;;18.44;57.81;101292.09;5037025;28;45264;-60
2022/07/27 07:12:06;;;;;;;;;7.00;7.00;;;;;18.50;57.49;101297.03;5037297;28;45756;-62
2022/07/27 07:14:32;;;;;;;;;5.33;5.33;;;;;18.51;57.07;101298.75;5036072;28;45638;-62
2022/07/27 07:17:00;;;;;;;;;10.00;7.33;;;;;18.54;57.37;101301.19;5036960;28;45402;-62
2022/07/27 07:19:25;;;;;;;;;4.33;4.00;;;;;18.58;56.77;101300.81;5036874;28;45370;-62
2022/07/27 07:21:51;;;;;;;;;5.00;5.00;;;;;18.60;57.02;101292.63;5036628;28;45324;-61
2022/07/27 07:24:16;;;;;;;;;7.33;4.33;;;;;18.68;57.02;101287.53;5036898;28;45471;-60
2022/07/27 07:26:41;;;;;;;;;10.33;4.67;;;;;18.74;56.97;101292.41;5036590;28;48393;-59
2022/07/27 07:29:07;;;;;;;;;2.00;2.00;;;;;18.75;56.49;101286.06;5036824;28;45319;-60
2022/07/27 07:31:33;;;;;;;;;9.33;6.33;;;;;18.81;56.71;101290.97;5037029;28;45306;-61
2022/07/27 07:33:58;;;;;;;;;8.33;5.00;;;;;18.91;56.31;101306.41;5037128;28;45672;-61
2022/07/27 07:36:24;;;;;;;;;6.33;5.00;;;;;18.96;56.44;101293.41;5042925;28;46230;-61
2022/07/27 07:38:50;;;;;;;;;4.00;4.00;;;;;19.04;56.09;101301.75;5056900;28;45384;-60
2022/07/27 07:41:15;;;;;;;;;8.00;6.00;;;;;19.05;56.29;101303.47;5056988;28;45219;-60
2022/07/27 07:43:41;;;;;;;;;7.67;5.67;;;;;19.08;56.27;101303.22;5057436;28;45403;-59
2022/07/27 07:46:07;;;;;;;;;6.00;6.00;;;;;19.14;56.29;101313.50;5056002;28;45567;-60
2022/07/27 07:48:33;;;;;;;;;4.00;4.00;;;;;19.22;56.23;101315.56;5056984;28;45354;-63
2022/07/27 07:50:59;;;;;;;;;6.00;4.00;;;;;19.30;55.81;101313.13;5056877;28;45457;-59
2022/07/27 07:53:25;;;;;;;;;6.00;4.67;;;;;19.33;55.75;101312.88;5055405;28;45525;-60
2022/07/27 07:55:52;;;;;;;;;6.67;5.00;;;;;19.36;55.81;101305.38;5055893;28;46353;-61
2022/07/27 07:58:18;;;;;;;;;4.67;3.00;;;;;19.41;55.70;101297.78;5036774;28;45423;-61
2022/07/27 08:00:43;;;;;;;;;6.00;5.00;;;;;19.47;55.54;101300.94;5042668;28;45415;-61
2022/07/27 08:03:09;;;;;;;;;6.33;6.33;;;;;19.34;54.78;101293.88;5056956;28;45406;-63
2022/07/27 08:05:34;;;;;;;;;7.67;7.67;;;;;19.34;55.42;101301.09;5056272;28;45413;-62
2022/07/27 08:08:00;;;;;;;;;14.33;7.33;;;;;19.39;55.82;101301.56;5037547;28;45327;-60
2022/07/27 08:10:26;;;;;;;;;5.33;4.33;;;;;19.48;55.56;101305.38;5050513;28;45692;-62
2022/07/27 08:12:54;;;;;;;;;10.33;8.00;;;;;19.46;54.95;101292.00;5055516;28;45398;-63
2022/07/27 08:15:20;;;;;;;;;7.00;7.00;;;;;19.49;55.85;101290.88;5056256;28;45459;-63
2022/07/27 08:17:46;;;;;;;;;7.00;5.67;;;;;19.75;54.71;101295.00;5039977;28;45781;-62
2022/07/27 08:20:14;;;;;;;;;6.33;5.67;;;;;19.97;54.18;101285.97;5035109;28;45307;-61
2022/07/27 08:22:40;;;;;;;;;6.33;6.33;;;;;20.21;53.64;101283.03;5036385;28;45261;-61
2022/07/27 08:25:07;;;;;;;;;7.67;6.00;;;;;20.42;53.14;101286.59;5035587;28;47800;-62
2022/07/27 08:27:33;;;;;;;;;9.00;3.33;;;;;20.63;52.47;101294.72;5050717;28;45450;-61
2022/07/27 08:29:58;;;;;;;;;9.00;8.00;;;;;20.75;52.10;101265.75;5055994;28;45242;-61
2022/07/27 08:32:24;;;;;;;;;7.00;6.00;;;;;21.19;51.28;101284.28;5055131;28;45353;-61
2022/07/27 08:34:50;;;;;;;;;9.33;6.67;;;;;21.55;50.74;101273.00;5055673;28;45806;-60
2022/07/27 08:37:18;;;;;;;;;5.00;4.00;;;;;22.07;49.80;101277.19;5045127;28;45509;-61
2022/07/27 08:39:44;;;;;;;;;6.00;6.00;;;;;22.59;48.69;101283.94;5036122;28;45595;-62
2022/07/27 08:42:10;;;;;;;;;8.33;6.67;;;;;22.91;47.67;101277.28;5036198;28;45529;-61
2022/07/27 08:44:39;;;;;;;;;9.00;7.00;;;;;23.13;46.01;101281.47;5035708;28;46299;-61
2022/07/27 08:47:06;;;;;;;;;9.00;8.00;;;;;23.38;47.13;101272.63;5035771;28;45520;-62
2022/07/27 08:49:32;;;;;;;;;7.00;7.00;;;;;23.89;45.38;101273.84;5035876;28;45442;-61
2022/07/27 08:51:58;;;;;;;;;9.33;7.67;;;;;24.32;43.19;101273.03;5036306;28;45339;-62
2022/07/27 08:54:24;;;;;;;;;6.25;6.00;;;;;24.69;44.17;101278.22;5038026;28;46373;-60
2022/07/27 08:56:50;;;;;;;;;12.00;6.00;;;;;24.99;43.95;101267.81;5053958;28;45397;-61
2022/07/27 08:59:15;;;;;;;;;9.00;6.75;;;;;25.32;43.44;101263.41;5055512;28;45257;-61
2022/07/27 09:01:41;;;;;;;;;8.00;7.00;;;;;25.49;42.18;101270.59;5054356;28;45657;-60
2022/07/27 09:04:07;;;;;;;;;5.25;5.25;;;;;25.65;40.16;101267.03;5054910;28;45441;-62
2022/07/27 09:06:49;;;;;;;;;11.00;7.50;;;;;25.56;39.60;101259.91;5055225;28;45398;-61
2022/07/27 09:09:18;;;;;;;;;7.50;7.00;;;;;25.71;41.89;101266.44;5052726;28;45624;-63
2022/07/27 09:12:01;;;;;;;;;6.25;6.25;;;;;26.04;40.82;101269.16;5040397;28;45363;-62
2022/07/27 09:14:31;;;;;;;;;8.75;8.75;;;;;26.32;38.18;101251.44;5035780;28;45627;-62
2022/07/27 09:16:56;;;;;;;;;9.20;5.20;;;;;26.58;38.59;101264.91;5034174;28;45545;-61
2022/07/27 09:19:21;;;;;;;;;6.75;5.00;;;;;26.81;38.40;101262.25;5035087;28;45345;-63
2022/07/27 09:21:47;;;;;;;;;8.00;6.00;;;;;27.05;37.92;101264.06;5054768;28;45350;-63
2022/07/27 09:24:14;;;;;;;;;8.50;6.75;;;;;27.24;36.92;101265.53;5055181;28;45335;-62
2022/07/27 09:26:40;;;;;;;;;9.20;7.40;;;;;27.18;37.24;101271.69;5053929;28;45303;-62
2022/07/27 09:29:14;;;;;;;;;3.60;3.60;;;;;27.38;37.11;101263.94;5053990;28;45876;-62
2022/07/27 09:31:41;;;;;;;;;5.25;5.00;;;;;27.51;37.23;101270.50;5054353;28;45514;-64
2022/07/27 09:34:07;;;;;;;;;5.00;5.00;;;;;27.33;35.71;101254.38;5055921;28;45922;-63
2022/07/27 09:36:47;;;;;;;;;7.25;3.50;;;;;27.50;37.50;101268.81;5055904;28;45583;-62
2022/07/27 09:39:18;;;;;;;;;9.40;6.40;;;;;27.71;34.76;101261.88;5056334;28;45229;-63
2022/07/27 09:41:46;;;;;;;;;5.75;5.75;;;;;28.08;36.26;101266.53;5054501;28;45405;-62
2022/07/27 09:44:12;;;;;;;;;4.40;4.00;;;;;28.47;34.71;101252.69;5055182;28;46342;-63
2022/07/27 09:46:40;;;;;;;;;6.00;4.80;;;;;28.76;34.94;101258.19;5051458;28;45235;-61
2022/07/27 09:49:31;;;;;;;;;4.40;4.40;;;;;29.09;33.93;101255.09;5052744;28;45449;-62
2022/07/27 09:51:58;;;;;;;;;6.00;4.40;;;;;29.43;34.31;101253.59;5054083;28;45414;-62
2022/07/27 09:54:25;;;;;;;;;5.80;4.80;;;;;29.70;32.49;101250.16;5036856;28;46155;-61
2022/07/27 09:56:59;;;;;;;;;4.80;4.20;;;;;29.84;31.43;101251.13;5038147;28;45513;-63
2022/07/27 09:59:25;;;;;;;;;6.60;5.80;;;;;30.06;31.68;101251.97;5037095;28;45387;-62
2022/07/27 10:01:52;;;;;;;;;9.00;7.00;;;;;30.42;31.47;101249.94;5055906;28;45385;-63
2022/07/27 10:04:18;;;;;;;;;8.40;7.20;;;;;30.65;30.78;101246.97;5058012;28;45398;-62
2022/07/27 10:06:44;;;;;;;;;7.50;5.50;;;;;30.81;30.25;101245.78;5056933;28;45434;-63
2022/07/27 10:09:09;;;;;;;;;5.25;5.25;;;;;30.76;28.19;101248.31;5058121;28;45448;-62
2022/07/27 10:11:36;;;;;;;;;6.00;6.00;;;;;30.50;30.36;101238.81;5058436;28;45466;-63
2022/07/27 10:14:01;;;;;;;;;8.60;3.60;;;;;30.56;29.54;101239.91;5058333;28;46468;-62
2022/07/27 10:16:29;;;;;;;;;6.00;4.50;;;;;30.65;29.06;101238.75;5055212;28;45473;-63
2022/07/27 10:19:24;;;;;;;;;2.40;2.40;;;;;30.75;30.78;101241.97;5037915;28;45387;-62
2022/07/27 10:21:50;;;;;;;;;5.40;3.60;;;;;30.73;29.28;101226.72;5037780;28;45154;-62
2022/07/27 10:24:33;;;;;;;;;4.50;3.00;;;;;30.53;29.80;101232.94;5037724;28;46992;-63
2022/07/27 10:27:28;;;;;;;;;4.60;3.60;;;;;30.33;29.12;101240.16;5037820;28;45281;-61
2022/07/27 10:29:55;;;;;;;;;3.00;3.00;;;;;30.02;29.67;101236.94;5037684;28;45252;-64
2022/07/27 10:32:32;;;;;;;;;4.80;4.80;;;;;29.43;30.89;101239.88;5037623;28;45494;-61
2022/07/27 10:34:59;;;;;;;;;6.00;4.80;;;;;28.98;31.59;101231.78;5037666;28;46330;-64
2022/07/27 10:37:33;;;;;;;;;6.00;4.80;;;;;28.62;31.39;101236.28;5037652;28;45593;-63
2022/07/27 10:42:48;;;;;;;;;5.00;5.00;;;;;27.76;33.10;101249.38;5037631;28;45347;-63
2022/07/27 10:45:16;;;;;;;;;6.20;5.80;;;;;27.68;33.61;101243.97;5037361;28;46474;-63
2022/07/27 10:47:51;;;;;;;;;6.80;5.00;;;;;27.39;33.55;101232.84;5037467;28;45328;-62
2022/07/27 10:50:16;;;;;;;;;5.00;4.00;;;;;27.25;33.79;101238.06;5037426;28;45241;-63
2022/07/27 10:52:47;;;;;;;;;5.50;5.00;;;;;26.75;34.92;101233.81;5037547;28;45269;-62
2022/07/27 10:55:28;;;;;;;;;8.00;3.75;;;;;26.58;35.70;101229.44;5036844;28;46809;-63
2022/07/27 10:58:17;;;;;;;;;6.40;6.00;;;;;26.57;35.43;101221.44;5047622;28;45425;-61
2022/07/27 11:00:49;;;;;;;;;6.40;3.80;;;;;26.34;35.42;101215.81;5056462;28;45302;-62
2022/07/27 11:03:23;;;;;;;;;4.50;4.50;;;;;26.11;36.42;101226.56;5056391;28;45412;-61
2022/07/27 11:06:21;;;;;;;;;6.80;5.20;;;;;26.08;35.84;101216.88;5057169;28;46163;-62
2022/07/27 11:08:48;;;;;;;;;3.60;2.60;;;;;26.05;34.56;101211.78;5038812;28;45271;-62
2022/07/27 11:11:22;;;;;;;;;2.00;1.80;;;;;25.99;33.52;101208.88;5036892;28;45287;-62
2022/07/27 11:13:54;;;;;;;;;1.00;1.00;;;;;25.87;34.45;101211.94;5037172;28;45451;-61
2022/07/27 11:16:20;;;;;;;;;2.00;2.00;;;;;25.74;33.97;101208.00;5036803;28;46372;-63
2022/07/27 11:18:55;;;;;;;;;2.00;2.00;;;;;25.77;33.54;101203.06;5037185;28;45629;-62
2022/07/27 11:21:33;;;;;;;;;3.60;1.00;;;;;25.77;34.33;101213.13;5037085;28;45433;-63
2022/07/27 11:24:10;;;;;;;;;3.00;3.00;;;;;25.79;34.07;101190.16;5037307;28;45341;-61
2022/07/27 11:26:44;;;;;;;;;2.00;2.00;;;;;25.86;34.88;101191.16;5037266;28;45181;-65
2022/07/27 11:29:12;;;;;;;;;19.00;12.50;;;;;25.93;34.47;101185.88;5037016;28;45320;-63
2022/07/27 11:31:39;;;;;;;;;4.40;3.00;;;;;25.80;34.25;101189.13;5052720;28;45478;-62